Aviation Digital Data Service (ADDS)

Output produced by METARs form (1035 UTC 19 January 2019)
found at http://www.aviationweather.gov/metar/data/
 
CYYC 191000Z 18008KT 3SM IC SCT005 BKN220 M16/M18 A2990 RMK SC3CI3 SLP216
TAF CYYC 190838Z 1909/2006 18010KT 4SM IC BR FEW003 SCT008 
     TEMPO 1909/1914 11/2SM IC BKN003 
     FM191400 18010KT 5SM IC BR FEW004 OVC008 
     TEMPO 1914/1917 2SM IC OVC004 
     FM191700 19005KT P6SM BKN008 
     TEMPO 1918/1920 SCT008 BKN012 
     FM192000 21005KT P6SM SCT012 
     BECMG 1922/1924 26010KT SKC 
     FM200200 24008KT P6SM SKC 
     TEMPO 2002/2006 27015G25KT RMK NXT FCST BY 191200Z
       
CYBW 191000Z AUTO 16004KT 7SM FEW003 OVC120 M17/M19 A2987 RMK SLP212
TAF AMD CYBW 190453Z 1904/1905 VRB02KT 4SM -SN IC BKN003 
     TEMPO 1904/1905 P6SM NSW SCT003 RMK FCST BASED ON AUTO OBS. NXT FCST WILL
BE ISSUED AT 191245Z
       
CYEG 191000Z 12015KT 20SM -SN DRSN FEW074 OVC200 M15/M18 A3002 RMK AC2CI6 SLP231
TAF CYEG 190838Z 1909/2006 13015KT P6SM -SN SCT030 OVC070 
     TEMPO 1909/1912 BKN030 
     FM191200 13015G25KT P6SM SCT012 OVC030 
     TEMPO 1912/1915 BKN012 
     FM191500 13015G25KT P6SM -SN SCT012 OVC030 
     TEMPO 1915/1917 3SM -SHSN BKN012 
     FM191700 14020G30KT P6SM BKN020 OVC100 
     TEMPO 1917/1920 6SM BLSN 
     FM192100 16012G22KT P6SM SCT025 BKN100 
     BECMG 1922/1924 14010KT 
     FM200200 12005KT P6SM BKN080 
     TEMPO 2004/2006 6SM -SHSN 
     BECMG 2004/2006 16004KT RMK NXT FCST BY 191200Z
       
CZVL 191000Z AUTO 12009G15KT 9SM SCT035 BKN110 OVC210 M14/M17 A3003 RMK SLP228
TAF CZVL 190540Z 1906/1918 14010KT P6SM SCT020 BKN040 
     TEMPO 1906/1910 P6SM -SN OVC020 
     FM191000 14012G22KT P6SM SCT012 OVC030 
     TEMPO 1910/1915 BKN012 
     FM191500 13012G22KT P6SM -SN SCT012 OVC030 
     TEMPO 1915/1917 11/2SM -SHSN VV012 
     FM191700 14015G25KT P6SM BKN020 OVC100 
     TEMPO 1917/1918 6SM BLSN RMK FCST BASED ON AUTO OBS. NXT FCST BY 191200Z
       
CYET 191000Z AUTO 06005KT 9SM -SN OVC010 M15/M16 A2990 RMK SLP201
CYPY 191014Z AUTO 10009KT 9SM -SN FEW200 M30/M34 A3044 RMK SLP346
TAF CYPY 182339Z 1900/1907 06005KT P6SM SKC RMK FCST BASED ON AUTO OBS. NXT FCST
WILL BE ISSUED AT 191245Z
       
CYMM 191000Z AUTO 09007KT 9SM FEW170 M25/M28 A3034 RMK SLP325
TAF CYMM 190638Z 1907/1919 08005KT P6SM SCT160 
     FM191000 11005KT P6SM BKN140 
     BECMG 1915/1917 11010KT 
     FM191800 12012KT P6SM BKN100 RMK FCST BASED ON AUTO OBS. NXT FCST BY
191300Z
       
CYQU 191000Z 09011KT 25SM OVC078 M13/M17 A2982 RMK AC8 SLP157
TAF AMD CYQU 190910Z 1909/1919 05007KT P6SM FEW025 OVC080 
     TEMPO 1910/1912 BKN020 
     FM191200 05007KT P6SM SCT010 OVC025 
     TEMPO 1912/1914 4SM -SN BR BKN010 
     FM191400 04006KT 3SM -SN VV020 
     TEMPO 1914/1916 1SM -SN VV010 
     FM191600 02006KT 3/4SM -SN VV008 
     TEMPO 1916/1917 2SM -SN VV015 
     BECMG 1917/1918 6SM -SN OVC015 
     FM191800 VRB03KT P6SM OVC015 RMK NXT FCST BY 191300Z
       
CYOJ 191000Z AUTO 14013G19KT 9SM -SN BKN038 OVC095 M20/M24 A3014 RMK SLP247
TAF AMD CYOJ 190849Z 1908/1919 14015G25KT 6SM -SN OVC025 
     TEMPO 1908/1911 4SM -SN OVC020 
     FM191100 14010G20KT 6SM -SN SCT015 OVC030 
     TEMPO 1911/1916 2SM -SN VV015 
     FM191600 12010KT 3/4SM -SN VV008 
     TEMPO 1916/1919 2SM -SN VV015 RMK FCST BASED ON AUTO OBS. NXT FCST BY
191300Z
       
CYQL 191000Z AUTO 17004KT 9SM CLR M19/M22 A2997 RMK SLP227
TAF CYQL 190540Z 1906/1918 26006KT P6SM FEW180 BKN270 
     FM191100 22010KT P6SM SCT080 BKN180 
     TEMPO 1911/1915 14005KT 
     FM191500 20015KT P6SM BKN270 
     BECMG 1917/1918 24015G25KT SCT270 RMK FCST BASED ON AUTO OBS. NXT FCST BY
191200Z
       
CYLL 191000Z AUTO 12007KT 9SM SCT075 OVC091 M23/M26 A3021 RMK SLP308
TAF CYLL 190540Z 1906/1918 11008KT P6SM OVC070 
     TEMPO 1907/1909 6SM -SN OVC060 
     BECMG 1909/1911 11012KT 
     FM191300 11015KT P6SM OVC050 
     BECMG 1914/1916 12015G25KT 
     FM191700 12018G28KT 4SM -SN VV030 
     TEMPO 1917/1918 1SM -SN BLSN VV010 RMK FCST BASED ON AUTO OBS. NXT FCST BY
191200Z
       
CYXH 191000Z AUTO 04003KT 030V100 9SM CLR M16/M18 A3005 RMK ICG INTMT SLP231
TAF CYXH 190540Z 1906/1918 VRB03KT P6SM OVC100 
     TEMPO 1906/1911 05005KT 
     FM191100 05005KT P6SM FEW100 
     TEMPO 1911/1916 2SM IC BR 
     PROB30 1912/1915 3/4SM IC BR VV006 RMK FCST BASED ON AUTO OBS. NXT FCST BY
191200Z
       
CYPE 191000Z 09009KT 15SM -SN BKN029 OVC045 M14/M18 A2995 RMK SC5SC3 SLP196
TAF CYPE 190638Z 1907/1919 08010KT P6SM -SN OVC040 
     FM191000 08010KT P6SM SCT015 BKN030 
     TEMPO 1910/1916 5SM -SN BKN015 
     FM191600 08010KT 3SM -SN VV020 
     TEMPO 1916/1918 1SM -SN VV010 
     FM191800 08010KT 3/4SM -SN VV008 
     TEMPO 1918/1919 11/2SM -SN VV012 RMK NXT FCST BY 191300Z
       
CZPC 191017Z AUTO 25024G29KT 9SM SCT100 OVC120 01/M05 A2989 RMK PRESFR SLP156
CYQF 191000Z 13009KT 12SM -SN DRSN BKN012 M17/M19 A2996 RMK SC5 SLP225
TAF AMD CYQF 190813Z 1908/1918 16015KT P6SM SCT012 OVC080 
     TEMPO 1908/1910 4SM -SN BKN012 
     FM191000 16015KT P6SM SCT005 OVC010 
     TEMPO 1910/1918 4SM -SN BR BKN005 RMK NXT FCST BY 191200Z
       
CYZH 191033Z AUTO 10015G22KT 7SM -SN OVC065 M16/M19 A3004 RMK SLP227
TAF AMD CYZH 191029Z 1910/1919 10015G25KT P6SM -SN OVC060 
     TEMPO 1910/1912 5SM -SN 
     FM191200 12015G25KT P6SM SCT020 OVC040 
     TEMPO 1913/1915 BKN020 
     FM191500 14020G30KT P6SM SCT020 OVC040 
     TEMPO 1915/1916 5SM BLSN BKN020 
     FM191600 14020G30KT 3SM -SN BLSN VV020 
     TEMPO 1916/1919 3/4SM -SN BLSN VV008 RMK FCST BASED ON AUTO OBS. NXT FCST
BY 191300Z
       
CYZU 190500Z 09008KT 15SM -SN BKN012 OVC040 M17/M19 A3007 RMK SC7SC1 LAST STFD OBS/NEXT 191300Z SLP254
CYXX 191027Z 11006KT 13SM -RA FEW006 BKN021 OVC038 06/06 A2983 RMK SF1SC7SC1 SF TR SLP103
TAF CYXX 190538Z 1906/2006 05012KT 6SM -RA BKN030 
     TEMPO 1906/1908 2SM +RA 
     FM190800 06010KT P6SM -RA SCT015 OVC030 
     TEMPO 1908/1912 5SM -RA BR SCT008 OVC020 
     BECMG 1910/1912 18012KT 
     FM191200 18012KT P6SM SCT040 
     TEMPO 1912/1916 BKN030 
     FM191600 17010KT P6SM BKN030 
     TEMPO 1916/1924 P6SM -SHRA BKN020 
     FM200300 09005KT P6SM SCT040 RMK NXT FCST BY 191200Z
       
CBBC 191026Z AUTO 15023G31KT 9SM -RA FEW043 OVC055 09/04 A2916 RMK SLP877 DENSITY ALT 300FT
TAF CBBC 190038Z 1901/1906 14008KT P6SM SCT030 BKN150 
     TEMPO 1901/1906 P6SM -SHRA BKN030 RMK FCST BASED ON AUTO OBS. NXT FCST WILL
BE ISSUED AT 191345Z
       
CYBL 190500Z 12019G37KT 10SM -RA FEW008 OVC017 06/05 A2965 RMK SF2SC6 LAST STFD OBS/NEXT 191400UTC PRESFR SLP043
TAF CYBL 190038Z 1901/1905 12020G30KT P6SM -RA SCT008 OVC015 
     TEMPO 1901/1905 3SM -RA BR OVC008 RMK NXT FCST WILL BE ISSUED AT 191545Z
       
CYXC 191000Z 19004KT 15SM -SN FEW030 BKN050 OVC070 M03/M04 A3002 RMK SC2SC3AC3 PRESFR SLP203
TAF CYXC 190638Z 1907/1919 VRB03KT P6SM SCT040 BKN120 
     TEMPO 1907/1909 5SM -SN BR SCT012 BKN020 OVC040 
     FM190900 VRB03KT P6SM SCT012 OVC025 
     TEMPO 1909/1919 5SM -SN SCT006 OVC012 RMK NXT FCST BY 191300Z
       
CYDQ 191012Z AUTO 07006KT 9SM OVC017 M15/M18 A2982 RMK SLP158
TAF CYDQ 190038Z 1901/1905 08004KT 6SM -SN SCT015 OVC030 
     TEMPO 1901/1902 11/2SM -SN OVC015 
     FM190200 06004KT P6SM SCT020 OVC050 
     TEMPO 1902/1905 3SM -SN OVC020 RMK FCST BASED ON AUTO OBS. NXT FCST WILL BE
ISSUED AT 191245Z
       
CYDL 191024Z AUTO 03005KT 320V070 6SM -SN BKN028 OVC120 M18/M21 A2961 RMK SLP088
TAF CYDL 182338Z 1900/1903 36010KT P6SM -SN OVC040 
     TEMPO 1900/1903 1SM -SN OVC020 RMK FCST BASED ON AUTO OBS. NXT FCST WILL BE
ISSUED AT 191645Z
       
CYYE 191000Z VRB02KT 15SM -SN OVC018 M20/M22 A3001 RMK SC8 SLP205
TAF CYYE 190638Z 1907/1919 VRB03KT P6SM -SN OVC020 
     TEMPO 1907/1917 P6SM NSW SCT020 OVC040 
     FM191700 30003KT 5SM -SN SCT015 OVC025 
     TEMPO 1917/1918 2SM -SN VV015 RMK NXT FCST BY 191300Z
       
CYXJ 191000Z 10012KT 15SM -SN OVC021 M15/M17 A2983 RMK SC8 SLP163
TAF CYXJ 190638Z 1907/1919 11015KT P6SM -SN OVC020 
     FM191000 11010KT P6SM -SN OVC015 
     TEMPO 1911/1914 P6SM NSW SCT015 OVC025 
     FM191400 09008KT 3/4SM -SN VV008 
     TEMPO 1914/1917 3SM -SN VV020 
     BECMG 1917/1918 6SM -SN OVC020 
     FM191800 VRB03KT P6SM -SN OVC020 RMK NXT FCST BY 191300Z
       
CYKA 191000Z 09012G17KT 30SM FEW018 BKN038 BKN070 04/01 A2977 RMK SC1SC5AC2 SC TR SLP094
TAF CYKA 190638Z 1907/1919 09015KT P6SM SCT025 BKN060 
     FM191500 10015KT WS005/20020KT P6SM SCT040 RMK NXT FCST BY 191300Z
       
CYLW 191000Z AUTO 33005KT 6SM BR FEW012 BKN060 OVC072 01/01 A2990 RMK PRESFR SLP142
TAF CYLW 190638Z 1907/1919 VRB03KT P6SM SCT030 OVC060 
     TEMPO 1907/1914 3SM -RASN BR SCT008 OVC020 
     BECMG 1907/1909 17008KT 
     FM191400 15005KT P6SM BKN040 
     TEMPO 1914/1919 6SM -RA BR BKN020 RMK FCST BASED ON AUTO OBS. NXT FCST BY
191300Z
       
CYZY 191011Z AUTO VRB02KT 9SM OVC006 M09/M11 A2959 RMK SLP069
TAF CYZY 190638Z 1907/1909 VRB03KT P6SM OVC012 
     TEMPO 1907/1909 2SM -SN BR BKN006 OVC012 RMK FCST BASED ON AUTO OBS. NXT
FCST WILL BE ISSUED AT 191445Z
       
CYCD 190500Z 12008KT 060V160 5SM RA BR OVC006 07/06 A2975 RMK SF8 LAST STFD OBS/NEXT 191400Z CIG RAG SLP075
TAF CYCD 182338Z 1900/1905 11010KT P6SM -RA SCT012 BKN040 
     TEMPO 1900/1905 4SM -RA BR SCT004 OVC010 
     BECMG 1900/1902 12010G20KT RMK NXT FCST WILL BE ISSUED AT 191545Z
       
CYYF 191000Z 18026G35KT 15SM FEW018 BKN040 BKN100 04/01 A2992 RMK SC2SC3AC2 SLP144
TAF CYYF 190638Z 1907/1919 18018G28KT P6SM SCT012 OVC030 
     TEMPO 1907/1916 4SM -RA BR BKN015 
     FM191600 18012KT P6SM BKN030 
     TEMPO 1916/1919 6SM -RA BR RMK NXT FCST BY 191300Z
       
CYZT 191000Z 14017G30KT 100V220 15SM -RA FEW015 OVC040 07/05 A2936 RMK SF2SC6 SLP945
TAF AMD CYZT 190918Z 1909/1919 15018G28KT P6SM -RA SCT030 OVC050 
     TEMPO 1909/1913 5SM -RA BR BKN020 
     FM191300 19015G30KT P6SM BKN040 
     TEMPO 1913/1919 5SM -RA BR RMK NXT FCST BY 191300Z
       
CYXS 191026Z AUTO 36008KT 1SM -SN VV010 M04/M04 A2950 RMK PRESFR SLP028
TAF AMD CYXS 191014Z 1910/1919 36008KT 6SM -SN SCT012 OVC030 
     TEMPO 1910/1914 1SM -SN BR OVC012 
     FM191400 VRB03KT P6SM SCT080 BKN200 
     TEMPO 1914/1917 BKN080 
     FM191700 15008KT P6SM BKN200 RMK FCST BASED ON AUTO OBS. NXT FCST BY
191300Z
       
CYPR 191028Z AUTO 00000KT 9SM OVC055 05/04 A2915 RMK SLP872
TAF CYPR 190638Z 1907/1919 05005KT P6SM -RA BKN060 
     TEMPO 1907/1910 4SM -RA BR 
     FM191000 08008KT P6SM BKN060 
     TEMPO 1910/1919 5SM -SHRA BR BKN050 RMK FCST BASED ON AUTO OBS. NXT FCST BY
191300Z
       
CYQZ 191000Z AUTO 15011G16KT 9SM FEW024 BKN030 BKN035 OVC065 03/00 A2951 RMK ICG PAST HR SLP021
TAF AMD CYQZ 190436Z 1904/1906 14005KT P6SM SCT008 BKN130 
     TEMPO 1904/1906 2SM BR BKN008 RMK FCST BASED ON AUTO OBS. NXT FCST WILL BE
ISSUED AT 191145Z
       
CYRV 191022Z AUTO 34005KT 310V050 4SM -SN OVC008 00/M00 A2996 RMK ICG PAST HR SLP165
CYZP 191034Z AUTO 07018KT 9SM OVC027 07/05 A2903 RMK SLP833 DENSITY ALT 100FT
TAF AMD CYZP 190841Z 1908/1919 09020G30KT P6SM -RA SCT006 OVC015 
     TEMPO 1908/1918 2SM RA BR SCT002 BKN006 OVC012 
     BECMG 1916/1918 34010KT 
     FM191800 34010KT P6SM -RA SCT020 BKN040 
     TEMPO 1918/1919 5SM -RA BR BKN020 OVC040 RMK FCST BASED ON AUTO OBS. NXT
FCST BY 191300Z
       
CYYD 191010Z AUTO VRB04KT 1 1/4SM -SN BKN017 OVC036 M06/M07 A2946 RMK SLP002
TAF CYYD 190038Z 1901/1906 17008KT P6SM SCT030 BKN080 
     TEMPO 1901/1906 P6SM -SN BKN030 RMK NXT FCST WILL BE ISSUED AT 191345Z
       
CYXT 191000Z 01022G35KT 8SM -SN FEW002 SCT060 OVC080 M02/M04 A2933 RMK SF2SC2AC4 SLP945
TAF CYXT 190638Z 1907/1919 01022G32KT P6SM -SN SCT020 BKN060 OVC230 
     TEMPO 1907/1909 3SM -SN FEW002 BKN020 OVC060 
     FM190900 01022G32KT 6SM -SN SCT020 OVC060 
     TEMPO 1909/1914 1SM -SN FEW002 BKN020 OVC060 
     FM191400 01022G32KT 1SM -SN SCT002 BKN015 OVC040 
     TEMPO 1914/1919 3SM -SN FEW002 SCT015 OVC060 
     PROB30 1914/1919 3/4SM -SN BLSN RMK NXT FCST BY 191300Z
       
CYVR 191000Z 08009KT 15SM BKN015 BKN031 07/06 A2979 RMK SC5SC2 SLP089
TAF CYVR 190838Z 1909/2012 10012G22KT P6SM -RA SCT015 OVC030 
     TEMPO 1909/1911 5SM -RA BR OVC015 
     FM191100 17012KT P6SM FEW020 SCT040 
     TEMPO 1911/1919 SCT020 BKN040 
     FM191900 18012KT P6SM SCT020 BKN050 
     TEMPO 1919/2006 P6SM -SHRA BKN020 
     BECMG 2000/2002 12008KT 
     FM200600 12008KT P6SM SCT040 
     TEMPO 2006/2012 BKN040 RMK NXT FCST BY 191200Z
       
CYYJ 191000Z 17012KT 20SM FEW008 FEW015 FEW060 SCT130 08/07 A2979 RMK SF1SC1CU1AC1 SF TR TCU ASOCTD S SLP091
TAF CYYJ 190538Z 1906/2006 11012G22KT 6SM -RA BR SCT012 OVC025 
     TEMPO 1906/1911 3SM -RA BR OVC008 
     FM191100 21012G22KT P6SM FEW020 SCT040 
     TEMPO 1915/1920 P6SM -SHRA BKN020 OVC040 
     FM200200 15010KT P6SM SCT020 RMK NXT FCST BY 191200Z
       
CYWL 191000Z 12022G35KT 15SM -SN DRSN BKN022 BKN080 OVC210 01/M03 A2951 RMK SC6AC1CI1 SLP028
TAF CYWL 190638Z 1907/1919 11018G28KT 6SM -SN SCT020 BKN040 OVC080 
     TEMPO 1907/1911 2SM -SN OVC020 
     FM191100 11018G28KT P6SM SCT020 SCT080 BKN200 
     TEMPO 1911/1916 5SM -SN BKN020 BKN080 
     FM191600 11015G25KT P6SM SCT120 BKN200 RMK NXT FCST BY 191300Z